Time;durP1;ratioP1;P1;durP2;ratioP2;P2;SDS_P1;SDS_P2;PMS_P1;PMS_P2;Temp;Humidity;BMP_temperature;BMP_pressure;BME280_temperature;BME280_humidity;BME280_pressure;Samples;Min_cycle;Max_cycle;Signal;HPM_P1;HPM_P2
2023/07/22 04:01:30;;;;;;;6.70;3.57;;;14.10;97.30;;;;;;5549914;23;21004;-85
2023/07/22 04:03:56;;;;;;;4.23;3.93;;;14.10;97.30;;;;;;4952610;28;20435;-85
2023/07/22 04:06:21;;;;;;;9.07;4.90;;;14.00;97.30;;;;;;4952293;28;20202;-84
2023/07/22 04:08:47;;;;;;;3.87;3.63;;;14.00;97.30;;;;;;4954800;29;20277;-83
2023/07/22 04:11:14;;;;;;;3.27;3.13;;;14.00;97.30;;;;;;4954602;28;20195;-82
2023/07/22 04:13:39;;;;;;;6.10;4.77;;;14.00;97.30;;;;;;4954234;29;20171;-85
2023/07/22 04:16:05;;;;;;;3.97;3.70;;;14.00;97.30;;;;;;4955143;28;20796;-84
2023/07/22 04:18:34;;;;;;;6.20;3.33;;;14.00;97.30;;;;;;4953220;28;20538;-81
2023/07/22 04:21:00;;;;;;;5.43;3.00;;;13.90;97.30;;;;;;4954733;28;20210;-81
2023/07/22 04:23:26;;;;;;;11.27;3.40;;;14.00;97.30;;;;;;4954086;29;20434;-82
2023/07/22 04:25:52;;;;;;;6.10;4.20;;;14.00;97.30;;;;;;4953816;29;20431;-85
2023/07/22 04:28:17;;;;;;;65.17;4.63;;;14.00;97.30;;;;;;4952771;29;20506;-86
2023/07/22 04:30:43;;;;;;;11.90;2.70;;;14.00;97.30;;;;;;4954227;28;20207;-82
2023/07/22 04:33:11;;;;;;;8.73;3.97;;;14.00;97.30;;;;;;4954869;28;20237;-86
2023/07/22 04:35:38;;;;;;;5.30;3.57;;;14.00;97.30;;;;;;4953798;28;20236;-85
2023/07/22 04:38:04;;;;;;;3.43;3.13;;;13.90;97.30;;;;;;4954477;29;20464;-85
2023/07/22 04:40:30;;;;;;;8.20;5.30;;;13.90;97.30;;;;;;4953945;28;20430;-85
2023/07/22 04:42:56;;;;;;;4.70;3.40;;;13.90;97.30;;;;;;4954199;28;20837;-86
2023/07/22 04:45:23;;;;;;;6.63;5.00;;;14.00;97.30;;;;;;4955021;28;20811;-84
2023/07/22 04:47:50;;;;;;;5.60;3.93;;;14.00;97.30;;;;;;4953070;29;20573;-82
2023/07/22 04:50:16;;;;;;;5.13;3.43;;;14.00;97.30;;;;;;4954496;29;20425;-81
2023/07/22 04:52:44;;;;;;;4.70;3.60;;;13.90;97.30;;;;;;4952358;28;20550;-86
2023/07/22 04:55:10;;;;;;;5.43;3.57;;;14.00;97.30;;;;;;4953375;28;20910;-86
2023/07/22 04:57:36;;;;;;;9.30;5.57;;;14.00;97.30;;;;;;4951582;28;20551;-84
2023/07/22 05:00:03;;;;;;;5.97;4.77;;;14.00;97.30;;;;;;4952454;28;20183;-82
2023/07/22 05:02:30;;;;;;;4.10;3.67;;;14.00;97.30;;;;;;4954775;28;20477;-83
2023/07/22 05:04:56;;;;;;;10.43;6.03;;;14.00;97.30;;;;;;4953468;29;20419;-83
2023/07/22 05:07:21;;;;;;;4.10;3.57;;;14.00;97.30;;;;;;4953429;29;20473;-85
2023/07/22 05:09:47;;;;;;;5.77;3.57;;;14.00;97.30;;;;;;4952289;29;20207;-82
2023/07/22 05:12:12;;;;;;;5.60;3.50;;;14.00;97.30;;;;;;4953298;28;20211;-86
2023/07/22 05:14:38;;;;;;;5.23;4.43;;;14.00;97.30;;;;;;4954260;28;20186;-82
2023/07/22 05:17:04;;;;;;;7.40;2.80;;;14.10;97.30;;;;;;4953341;29;20179;-85
2023/07/22 05:19:29;;;;;;;6.80;4.67;;;14.10;97.30;;;;;;4953015;28;20176;-83
2023/07/22 05:21:55;;;;;;;7.60;5.33;;;14.10;97.30;;;;;;4952234;28;20246;-85
2023/07/22 05:24:21;;;;;;;9.73;5.90;;;14.10;97.30;;;;;;4954357;28;20201;-84
2023/07/22 05:26:46;;;;;;;4.87;3.23;;;14.20;97.30;;;;;;4952468;29;20190;-83
2023/07/22 05:29:12;;;;;;;3.87;2.97;;;14.20;97.30;;;;;;4951286;28;20431;-86
2023/07/22 05:31:38;;;;;;;7.10;4.10;;;14.20;97.30;;;;;;4952593;28;20219;-86
2023/07/22 05:34:03;;;;;;;4.10;2.60;;;14.20;97.30;;;;;;4953325;28;20270;-82
2023/07/22 05:36:29;;;;;;;7.20;4.87;;;14.20;97.30;;;;;;4951709;28;20172;-85
2023/07/22 05:38:55;;;;;;;9.73;4.80;;;14.30;97.30;;;;;;4952695;28;20203;-82
2023/07/22 05:41:21;;;;;;;3.10;2.97;;;14.30;97.30;;;;;;4945031;29;20222;-85
2023/07/22 05:43:46;;;;;;;7.00;4.17;;;14.40;97.30;;;;;;4953187;28;20338;-86
2023/07/22 05:46:12;;;;;;;6.73;4.07;;;14.40;97.30;;;;;;4949709;28;20190;-85
2023/07/22 05:48:37;;;;;;;6.93;4.33;;;14.40;97.30;;;;;;4953227;28;20183;-84
2023/07/22 05:51:03;;;;;;;4.23;3.73;;;14.40;97.30;;;;;;4950741;28;20708;-82
2023/07/22 05:53:28;;;;;;;7.23;2.87;;;14.50;97.30;;;;;;4951892;28;20183;-87
2023/07/22 05:55:54;;;;;;;9.40;4.70;;;14.50;97.30;;;;;;4951598;29;20731;-86
2023/07/22 05:58:19;;;;;;;11.17;3.67;;;14.50;97.30;;;;;;4950996;28;20218;-86
2023/07/22 06:00:46;;;;;;;8.47;4.03;;;14.50;97.30;;;;;;4952608;29;20215;-86
2023/07/22 06:03:12;;;;;;;10.43;4.80;;;14.50;97.30;;;;;;4951668;29;20183;-85
2023/07/22 06:05:38;;;;;;;5.30;3.43;;;14.60;97.30;;;;;;4952570;29;20450;-83
2023/07/22 06:08:04;;;;;;;4.73;2.93;;;14.60;97.30;;;;;;4952367;28;20426;-83
2023/07/22 06:10:30;;;;;;;9.70;3.60;;;14.60;97.30;;;;;;4952131;28;20190;-83
2023/07/22 06:12:55;;;;;;;2.53;2.37;;;14.70;97.30;;;;;;4953562;29;20971;-85
2023/07/22 06:15:21;;;;;;;4.13;3.53;;;14.70;97.30;;;;;;4951931;28;20453;-85
2023/07/22 06:17:47;;;;;;;6.30;2.83;;;14.80;97.30;;;;;;4951495;29;20290;-85
2023/07/22 06:20:12;;;;;;;4.67;3.63;;;14.80;97.30;;;;;;4951447;28;20183;-86
2023/07/22 06:22:38;;;;;;;5.93;4.40;;;14.80;97.30;;;;;;4951103;28;20203;-86
2023/07/22 06:25:05;;;;;;;7.03;3.13;;;14.90;97.30;;;;;;4950544;29;20696;-85
2023/07/22 06:27:30;;;;;;;6.33;2.87;;;14.90;97.30;;;;;;4951212;29;20182;-83
2023/07/22 06:29:56;;;;;;;6.60;2.90;;;15.00;97.30;;;;;;4950988;28;20542;-82
2023/07/22 06:32:22;;;;;;;3.60;2.63;;;15.00;97.30;;;;;;4951072;28;20207;-85
2023/07/22 06:34:47;;;;;;;7.57;4.87;;;15.00;97.30;;;;;;4951203;28;20533;-84
2023/07/22 06:37:13;;;;;;;2.40;2.20;;;15.10;97.30;;;;;;4950978;29;20183;-81
2023/07/22 06:39:38;;;;;;;3.60;2.90;;;15.10;97.30;;;;;;4951446;29;20184;-84
2023/07/22 06:42:04;;;;;;;4.07;3.87;;;15.10;97.30;;;;;;4952099;28;20207;-83
2023/07/22 06:44:30;;;;;;;3.60;3.33;;;15.20;97.30;;;;;;4951335;29;20183;-80
2023/07/22 06:46:55;;;;;;;4.53;4.23;;;15.30;97.30;;;;;;4951128;29;20665;-83
2023/07/22 06:49:21;;;;;;;4.57;3.23;;;15.30;97.30;;;;;;4951205;29;20724;-82
2023/07/22 06:51:46;;;;;;;10.40;3.87;;;15.40;97.30;;;;;;4953195;28;20245;-84
2023/07/22 06:54:12;;;;;;;1.53;1.43;;;15.40;97.30;;;;;;4947682;28;20558;-84
2023/07/22 06:56:37;;;;;;;3.70;2.63;;;15.50;97.30;;;;;;4952706;28;20186;-84
2023/07/22 06:59:03;;;;;;;1.73;1.63;;;15.60;97.30;;;;;;4947324;29;20180;-83
2023/07/22 07:01:28;;;;;;;4.63;3.30;;;15.70;97.30;;;;;;4951162;28;20230;-84
2023/07/22 07:03:54;;;;;;;7.47;3.13;;;15.80;97.30;;;;;;4950978;29;20199;-82
2023/07/22 07:06:20;;;;;;;3.50;2.70;;;15.80;97.30;;;;;;4952644;28;20650;-82
2023/07/22 07:08:45;;;;;;;3.20;3.03;;;15.90;97.30;;;;;;4953368;28;20434;-87
2023/07/22 07:11:11;;;;;;;4.30;2.53;;;15.90;97.30;;;;;;4953797;28;20218;-81
2023/07/22 07:13:37;;;;;;;2.17;1.87;;;16.00;97.30;;;;;;4954850;28;20556;-85
2023/07/22 07:16:23;;;;;;;2.43;1.80;;;16.00;97.30;;;;;;4954603;29;20179;-83
2023/07/22 07:18:50;;;;;;;1.97;1.83;;;16.10;97.30;;;;;;4954792;29;20752;-84
2023/07/22 07:21:15;;;;;;;2.97;2.80;;;16.20;97.30;;;;;;4955203;28;20449;-82
2023/07/22 07:23:41;;;;;;;7.10;2.97;;;16.30;97.30;;;;;;4954449;28;20423;-83
2023/07/22 07:26:06;;;;;;;3.80;2.87;;;16.30;97.30;;;;;;4954115;29;20195;-81
2023/07/22 07:28:32;;;;;;;2.93;2.77;;;16.40;97.30;;;;;;4953828;28;20800;-82
2023/07/22 07:30:57;;;;;;;6.13;2.03;;;16.40;97.30;;;;;;4954651;28;20594;-84
2023/07/22 07:33:23;;;;;;;4.40;2.50;;;16.40;97.30;;;;;;4953723;29;20181;-84
2023/07/22 07:35:48;;;;;;;6.40;3.57;;;16.40;97.30;;;;;;4953539;29;20183;-81
2023/07/22 07:38:14;;;;;;;4.30;2.47;;;16.50;97.30;;;;;;4954668;28;20254;-85
2023/07/22 07:40:39;;;;;;;6.20;2.57;;;16.50;97.30;;;;;;4953664;28;20231;-84
2023/07/22 07:43:05;;;;;;;6.67;2.17;;;16.50;97.30;;;;;;4954031;29;20218;-84
2023/07/22 07:45:31;;;;;;;4.00;2.70;;;16.50;97.30;;;;;;4953672;29;20270;-82
2023/07/22 07:47:56;;;;;;;5.53;4.20;;;16.60;97.30;;;;;;4954857;28;20214;-84
2023/07/22 07:50:22;;;;;;;2.80;2.60;;;16.60;97.30;;;;;;4954154;28;20458;-82
2023/07/22 07:52:47;;;;;;;3.93;2.37;;;16.60;97.30;;;;;;4954315;29;20279;-84
2023/07/22 07:55:13;;;;;;;5.13;2.80;;;16.70;97.30;;;;;;4954074;29;20788;-84
2023/07/22 07:57:39;;;;;;;6.63;2.87;;;16.80;97.30;;;;;;4954588;29;20184;-81
2023/07/22 08:00:05;;;;;;;3.13;2.10;;;16.90;97.30;;;;;;4954685;28;20202;-85
2023/07/22 08:02:31;;;;;;;3.30;2.60;;;17.00;97.30;;;;;;4946581;29;20744;-85
2023/07/22 08:04:56;;;;;;;4.67;2.90;;;17.10;96.20;;;;;;4953908;28;20422;-84
2023/07/22 08:07:22;;;;;;;1.50;1.40;;;17.20;96.00;;;;;;4954456;28;20195;-81
2023/07/22 08:09:52;;;;;;;4.30;3.10;;;17.20;95.50;;;;;;4954136;29;20183;-84
2023/07/22 08:12:18;;;;;;;2.20;2.00;;;17.30;95.70;;;;;;4955558;28;20211;-85
2023/07/22 08:14:44;;;;;;;1.70;1.60;;;17.30;96.30;;;;;;4953039;29;20944;-84
2023/07/22 08:17:10;;;;;;;3.17;2.10;;;17.40;96.70;;;;;;4952972;28;20505;-85
2023/07/22 08:19:35;;;;;;;38.07;2.73;;;17.40;96.20;;;;;;4955816;28;20190;-84
2023/07/22 08:22:01;;;;;;;5.07;2.40;;;17.50;95.80;;;;;;4952263;28;20207;-85
2023/07/22 08:24:26;;;;;;;3.10;2.50;;;17.60;93.90;;;;;;4954101;28;20214;-82
2023/07/22 08:26:52;;;;;;;1.60;1.53;;;17.70;93.50;;;;;;4954238;29;20183;-85
2023/07/22 08:29:17;;;;;;;3.40;1.60;;;17.80;93.20;;;;;;4952929;28;20250;-85
2023/07/22 08:31:43;;;;;;;1.70;1.60;;;17.90;91.70;;;;;;4953819;29;20211;-80
2023/07/22 08:34:09;;;;;;;1.37;1.37;;;17.90;90.90;;;;;;4954305;29;20187;-84
2023/07/22 08:36:35;;;;;;;5.50;3.37;;;18.00;91.20;;;;;;4954080;28;20184;-85
2023/07/22 08:39:01;;;;;;;3.67;1.90;;;18.00;91.10;;;;;;4954328;28;20190;-84
2023/07/22 08:41:27;;;;;;;5.30;2.20;;;18.10;90.10;;;;;;4953675;29;20450;-85
2023/07/22 08:43:54;;;;;;;1.53;1.43;;;18.10;90.00;;;;;;4953415;29;20218;-84
2023/07/22 08:46:22;;;;;;;1.63;1.40;;;18.10;89.00;;;;;;4954204;28;20423;-85
2023/07/22 08:48:52;;;;;;;3.70;1.73;;;18.20;89.60;;;;;;4953542;29;20493;-85
2023/07/22 08:51:18;;;;;;;1.67;1.43;;;18.30;89.90;;;;;;4955121;28;20497;-84
2023/07/22 08:53:45;;;;;;;2.83;1.90;;;18.30;88.90;;;;;;4954483;28;20474;-81
2023/07/22 08:56:11;;;;;;;2.27;2.10;;;18.40;89.50;;;;;;4952692;28;20661;-86
2023/07/22 08:58:38;;;;;;;1.77;1.50;;;18.50;90.20;;;;;;4952910;28;20431;-85
2023/07/22 09:01:05;;;;;;;1.90;1.77;;;18.60;90.50;;;;;;4953654;28;20533;-82
2023/07/22 09:03:31;;;;;;;2.40;2.20;;;18.70;90.80;;;;;;4955583;28;20474;-82
2023/07/22 09:05:56;;;;;;;2.57;1.53;;;18.80;90.90;;;;;;4953817;29;20454;-84
2023/07/22 09:08:22;;;;;;;3.10;1.80;;;18.90;90.20;;;;;;4954156;29;20431;-85
2023/07/22 09:10:48;;;;;;;6.03;3.20;;;19.10;91.00;;;;;;4954197;28;20214;-86
2023/07/22 09:13:14;;;;;;;3.70;2.43;;;19.30;91.20;;;;;;4954326;28;20179;-83
2023/07/22 09:15:40;;;;;;;1.50;1.43;;;19.40;90.30;;;;;;4945493;28;20266;-84
2023/07/22 09:18:06;;;;;;;4.20;2.23;;;19.40;87.70;;;;;;4953682;28;20423;-83
2023/07/22 09:20:32;;;;;;;1.87;1.67;;;19.40;87.10;;;;;;4954971;28;20787;-85
2023/07/22 09:22:59;;;;;;;8.33;4.00;;;19.40;86.20;;;;;;4957257;28;20425;-85
2023/07/22 09:25:27;;;;;;;2.90;2.30;;;19.30;87.00;;;;;;4954842;29;20411;-81
2023/07/22 09:27:54;;;;;;;3.97;3.40;;;19.30;87.80;;;;;;4954193;29;20567;-81
2023/07/22 09:30:25;;;;;;;1.83;1.80;;;19.40;88.70;;;;;;4954083;28;20418;-82
2023/07/22 09:32:52;;;;;;;2.07;1.83;;;19.60;88.00;;;;;;4954206;28;20454;-84
2023/07/22 09:35:18;;;;;;;1.90;1.60;;;19.70;87.40;;;;;;4944714;28;20423;-86
2023/07/22 09:37:44;;;;;;;2.07;1.97;;;19.90;87.30;;;;;;4949315;29;20431;-81
2023/07/22 09:40:27;;;;;;;1.63;1.53;;;20.00;87.40;;;;;;4947846;29;20414;-85
2023/07/22 09:42:54;;;;;;;1.80;1.30;;;20.00;87.30;;;;;;4953710;29;20550;-81
2023/07/22 09:45:22;;;;;;;1.60;1.50;;;19.90;87.30;;;;;;4953820;28;20858;-81
2023/07/22 09:47:50;;;;;;;4.40;2.30;;;19.80;87.90;;;;;;4954978;28;20418;-83
2023/07/22 09:50:26;;;;;;;5.33;3.63;;;19.80;87.60;;;;;;4952406;28;20501;-83
2023/07/22 09:52:56;;;;;;;3.37;1.97;;;19.80;86.90;;;;;;4952220;28;20770;-86
2023/07/22 09:55:29;;;;;;;2.20;1.80;;;20.00;87.40;;;;;;4952707;28;20451;-86
2023/07/22 09:58:03;;;;;;;2.03;1.93;;;20.00;85.80;;;;;;4953013;29;20856;-81
2023/07/22 10:00:33;;;;;;;2.50;2.30;;;20.10;86.30;;;;;;4953863;29;20415;-86
2023/07/22 10:03:01;;;;;;;2.00;1.67;;;20.10;87.10;;;;;;4953755;29;20841;-85
2023/07/22 10:05:29;;;;;;;2.00;1.47;;;20.20;85.60;;;;;;4954724;28;20451;-82
2023/07/22 10:07:58;;;;;;;4.43;2.63;;;20.20;86.30;;;;;;4954875;28;20422;-84
2023/07/22 10:10:30;;;;;;;1.50;1.40;;;20.20;86.40;;;;;;4949518;29;20849;-82
2023/07/22 10:12:57;;;;;;;1.80;1.70;;;20.30;86.70;;;;;;4953446;29;20463;-86
2023/07/22 10:15:25;;;;;;;3.73;1.90;;;20.40;85.70;;;;;;4953765;28;20418;-84
2023/07/22 10:17:51;;;;;;;4.13;2.43;;;20.60;85.90;;;;;;4953702;28;20422;-84
2023/07/22 10:20:19;;;;;;;1.63;1.40;;;20.60;86.30;;;;;;4953932;29;20485;-85
2023/07/22 10:22:46;;;;;;;2.20;1.93;;;20.70;85.60;;;;;;4953283;28;20502;-83
2023/07/22 10:25:20;;;;;;;2.03;1.77;;;20.70;84.90;;;;;;4954289;28;20426;-85
2023/07/22 10:27:48;;;;;;;2.80;2.10;;;20.80;84.60;;;;;;4961712;28;20422;-85
2023/07/22 10:30:17;;;;;;;3.07;1.70;;;20.80;85.70;;;;;;4953254;29;20489;-81
2023/07/22 10:32:46;;;;;;;1.63;1.57;;;20.90;85.40;;;;;;4944520;29;20465;-84
2023/07/22 10:35:34;;;;;;;1.73;1.63;;;21.00;85.20;;;;;;4954157;29;20430;-84
2023/07/22 10:38:13;;;;;;;3.30;1.80;;;21.00;83.50;;;;;;4946821;29;20435;-85
2023/07/22 10:40:53;;;;;;;1.67;1.57;;;21.00;84.40;;;;;;4952945;28;20458;-81
2023/07/22 10:43:25;;;;;;;2.73;1.77;;;21.10;84.40;;;;;;4956169;29;20426;-84
2023/07/22 10:45:52;;;;;;;3.93;2.57;;;21.10;83.70;;;;;;4957214;28;20419;-85
2023/07/22 10:48:19;;;;;;;1.73;1.63;;;21.10;83.40;;;;;;4956055;29;20415;-85
2023/07/22 10:50:51;;;;;;;2.77;1.73;;;21.10;82.70;;;;;;4957130;28;20438;-82
2023/07/22 10:53:26;;;;;;;3.33;1.73;;;21.00;84.80;;;;;;4957165;29;21041;-85
2023/07/22 10:56:12;;;;;;;2.10;1.47;;;20.90;83.10;;;;;;4958657;28;20421;-84
2023/07/22 10:58:44;;;;;;;2.20;1.57;;;21.00;83.90;;;;;;4958143;29;20423;-81
2023/07/22 11:01:28;;;;;;;2.63;2.13;;;21.00;83.80;;;;;;4957514;28;20510;-81
2023/07/22 11:04:15;;;;;;;1.73;1.63;;;21.00;84.00;;;;;;4950973;29;20429;-84
2023/07/22 11:06:40;;;;;;;5.87;2.60;;;21.00;83.40;;;;;;4956279;29;21002;-85
2023/07/22 11:09:06;;;;;;;1.57;1.50;;;21.10;83.40;;;;;;4954710;28;20729;-84
2023/07/22 11:11:40;;;;;;;3.13;2.60;;;21.20;82.90;;;;;;4961835;29;20207;-84
2023/07/22 11:14:22;;;;;;;1.50;1.40;;;21.30;83.80;;;;;;4967471;28;20446;-82
2023/07/22 11:16:48;;;;;;;1.90;1.80;;;21.50;85.10;;;;;;4958457;29;20434;-84
2023/07/22 11:19:15;;;;;;;1.30;1.20;;;21.70;83.50;;;;;;4966608;28;20403;-84
2023/07/22 11:21:42;;;;;;;2.90;2.37;;;22.00;81.40;;;;;;4967276;28;20450;-85
2023/07/22 11:24:08;;;;;;;2.70;1.87;;;22.20;80.30;;;;;;4966492;28;20426;-81
2023/07/22 11:26:34;;;;;;;1.53;1.43;;;22.30;79.70;;;;;;4966466;29;20418;-85
2023/07/22 11:29:01;;;;;;;4.00;2.37;;;22.40;80.00;;;;;;4966040;28;20175;-84
2023/07/22 11:31:34;;;;;;;2.23;1.93;;;22.40;79.70;;;;;;4961528;28;20730;-82
2023/07/22 11:34:00;;;;;;;3.00;1.97;;;22.40;79.00;;;;;;4955626;28;20446;-84
2023/07/22 11:36:29;;;;;;;2.27;2.13;;;22.40;78.10;;;;;;4954634;29;20979;-84
2023/07/22 11:39:12;;;;;;;1.97;1.67;;;22.30;79.70;;;;;;4955448;28;20419;-85
2023/07/22 11:41:38;;;;;;;3.37;1.60;;;22.30;79.00;;;;;;4954667;28;20482;-85
2023/07/22 11:44:13;;;;;;;1.60;1.37;;;22.30;79.40;;;;;;4956477;28;20450;-82
2023/07/22 11:46:49;;;;;;;3.70;1.53;;;22.20;78.40;;;;;;4952298;28;20422;-84
2023/07/22 11:49:35;;;;;;;1.60;1.40;;;22.10;78.20;;;;;;4950647;29;20427;-84
2023/07/22 11:52:09;;;;;;;4.17;1.63;;;22.10;78.30;;;;;;4948968;28;20548;-81
2023/07/22 11:54:40;;;;;;;1.97;1.47;;;22.00;79.10;;;;;;4955802;29;20427;-85
2023/07/22 11:57:23;;;;;;;1.80;1.70;;;21.80;79.00;;;;;;4955501;29;20453;-84
2023/07/22 11:59:50;;;;;;;2.93;2.30;;;21.70;79.20;;;;;;4956564;28;20423;-84
2023/07/22 12:02:18;;;;;;;2.83;1.63;;;21.70;79.10;;;;;;4955795;29;20481;-82
2023/07/22 12:04:54;;;;;;;4.43;2.43;;;21.60;79.00;;;;;;4956069;28;20442;-82
2023/07/22 12:07:26;;;;;;;2.03;1.70;;;21.50;78.80;;;;;;4955346;28;20544;-82
2023/07/22 12:09:53;;;;;;;5.50;2.37;;;21.50;79.30;;;;;;4947971;29;20427;-81
2023/07/22 12:12:21;;;;;;;2.10;1.70;;;21.50;79.60;;;;;;4955374;28;20470;-86
2023/07/22 12:14:46;;;;;;;1.47;1.27;;;21.60;80.40;;;;;;4955289;28;20470;-81
2023/07/22 12:17:12;;;;;;;1.53;1.10;;;21.70;81.00;;;;;;4955492;28;20426;-83
2023/07/22 12:19:37;;;;;;;1.90;1.60;;;21.80;80.30;;;;;;4954929;29;20282;-84
2023/07/22 12:22:03;;;;;;;1.37;1.27;;;21.90;79.50;;;;;;4954766;28;20203;-81
2023/07/22 12:24:30;;;;;;;4.77;1.73;;;21.90;79.40;;;;;;4955136;28;20188;-82
2023/07/22 12:26:55;;;;;;;1.53;1.53;;;21.90;80.00;;;;;;4954021;29;20179;-84
2023/07/22 12:29:22;;;;;;;2.60;1.60;;;21.90;80.10;;;;;;4954696;29;20787;-81
2023/07/22 12:31:48;;;;;;;2.60;1.27;;;21.90;78.90;;;;;;4954593;29;20270;-82
2023/07/22 12:34:13;;;;;;;1.40;1.30;;;21.90;79.40;;;;;;4954913;29;20473;-84
2023/07/22 12:36:40;;;;;;;4.00;2.10;;;21.90;79.80;;;;;;4954263;29;20501;-84
2023/07/22 12:39:05;;;;;;;1.80;1.73;;;21.90;78.80;;;;;;4955985;28;20178;-82
2023/07/22 12:41:31;;;;;;;4.07;2.17;;;21.90;79.00;;;;;;4955116;29;20633;-81
2023/07/22 12:43:57;;;;;;;2.33;2.13;;;22.00;79.90;;;;;;4954561;28;20183;-81
2023/07/22 12:46:22;;;;;;;4.20;1.87;;;22.10;79.20;;;;;;4954002;28;20249;-81
2023/07/22 12:48:48;;;;;;;1.30;1.20;;;22.10;79.10;;;;;;4953688;29;20616;-84
2023/07/22 12:51:14;;;;;;;1.27;1.17;;;22.30;79.80;;;;;;4956463;28;20242;-83
2023/07/22 12:53:39;;;;;;;2.00;1.30;;;22.50;80.90;;;;;;4953950;29;20190;-84
2023/07/22 12:56:05;;;;;;;2.63;1.83;;;22.60;78.60;;;;;;4953631;29;20415;-81
2023/07/22 12:58:31;;;;;;;1.60;1.50;;;22.60;78.50;;;;;;4955709;28;20178;-84
2023/07/22 13:00:57;;;;;;;1.30;1.20;;;22.60;78.40;;;;;;4954537;28;20557;-81
2023/07/22 13:03:22;;;;;;;1.97;1.67;;;22.60;78.40;;;;;;4955060;28;20182;-84
2023/07/22 13:05:48;;;;;;;2.23;2.03;;;22.60;79.00;;;;;;4954397;28;20194;-81
2023/07/22 13:08:13;;;;;;;3.27;2.03;;;22.60;79.10;;;;;;4956198;28;20183;-85
2023/07/22 13:10:43;;;;;;;3.50;2.03;;;22.70;79.20;;;;;;4953739;29;20188;-84
2023/07/22 13:13:10;;;;;;;1.33;1.30;;;22.80;79.20;;;;;;4955339;28;20315;-84
2023/07/22 13:15:35;;;;;;;2.83;2.00;;;22.90;78.30;;;;;;4954583;28;20456;-84
2023/07/22 13:18:02;;;;;;;4.37;1.53;;;23.00;78.80;;;;;;4953864;29;20745;-84
2023/07/22 13:20:28;;;;;;;3.80;2.63;;;23.20;77.20;;;;;;4955251;28;20198;-84
2023/07/22 13:22:54;;;;;;;1.93;1.87;;;23.40;77.50;;;;;;4954501;29;20419;-81
2023/07/22 13:25:20;;;;;;;2.00;1.47;;;23.40;77.00;;;;;;4953865;29;20944;-85
2023/07/22 13:27:45;;;;;;;5.17;3.20;;;23.30;76.30;;;;;;4953131;29;20179;-81
2023/07/22 13:30:11;;;;;;;2.20;2.00;;;23.30;76.20;;;;;;4955292;28;20180;-85
2023/07/22 13:32:37;;;;;;;2.23;2.10;;;23.30;76.00;;;;;;4951562;28;20215;-85
2023/07/22 13:35:03;;;;;;;3.73;2.07;;;23.30;76.80;;;;;;4952733;28;20239;-85
2023/07/22 13:37:29;;;;;;;3.57;2.57;;;23.40;74.90;;;;;;4953488;28;20205;-84
2023/07/22 13:39:55;;;;;;;3.07;2.43;;;23.50;74.60;;;;;;4953573;29;20941;-84
2023/07/22 13:42:20;;;;;;;1.60;1.50;;;23.70;74.60;;;;;;4954763;28;20203;-80
2023/07/22 13:44:46;;;;;;;4.63;2.13;;;23.80;75.50;;;;;;4954537;28;20945;-84
2023/07/22 13:47:12;;;;;;;2.80;2.40;;;23.90;76.00;;;;;;4945595;28;20214;-84
2023/07/22 13:49:37;;;;;;;2.30;1.60;;;24.00;74.30;;;;;;4954208;28;20426;-81
2023/07/22 13:52:03;;;;;;;2.23;2.03;;;24.10;74.40;;;;;;4953456;29;20681;-80
2023/07/22 13:54:29;;;;;;;2.47;1.93;;;24.10;73.50;;;;;;4952876;28;20179;-84
2023/07/22 13:56:54;;;;;;;6.10;1.67;;;24.10;73.20;;;;;;4955302;28;20260;-84
2023/07/22 13:59:20;;;;;;;3.53;1.43;;;24.00;74.90;;;;;;4954796;29;20182;-84
2023/07/22 14:01:45;;;;;;;2.37;1.73;;;24.10;73.90;;;;;;4952480;28;20230;-81
2023/07/22 14:04:11;;;;;;;2.17;2.00;;;24.10;74.00;;;;;;4953852;29;20684;-80
2023/07/22 14:06:36;;;;;;;2.80;2.13;;;24.20;74.10;;;;;;4953622;28;20187;-84
2023/07/22 14:09:02;;;;;;;3.03;2.60;;;24.30;75.20;;;;;;4954088;29;20258;-84
2023/07/22 14:11:27;;;;;;;2.47;1.30;;;24.40;73.90;;;;;;4953968;28;20306;-84
2023/07/22 14:13:53;;;;;;;1.70;1.60;;;24.60;75.20;;;;;;4954006;29;20175;-81
2023/07/22 14:16:18;;;;;;;3.07;1.83;;;24.70;73.70;;;;;;4952731;29;20195;-81
2023/07/22 14:18:44;;;;;;;2.37;1.97;;;24.80;72.00;;;;;;4953523;29;20217;-81
2023/07/22 14:21:12;;;;;;;3.07;2.13;;;24.80;71.00;;;;;;4954481;29;20354;-84
2023/07/22 14:23:38;;;;;;;3.60;2.30;;;24.90;72.40;;;;;;4954433;28;20220;-81
2023/07/22 14:26:04;;;;;;;1.60;1.50;;;25.00;71.90;;;;;;4955911;28;20427;-82
2023/07/22 14:28:29;;;;;;;4.43;2.40;;;25.10;71.70;;;;;;4952581;29;20179;-81
2023/07/22 14:30:54;;;;;;;1.53;1.43;;;25.10;71.70;;;;;;4953552;29;20218;-80
2023/07/22 14:33:20;;;;;;;3.27;1.70;;;25.00;72.00;;;;;;4954569;29;20190;-81
2023/07/22 14:35:45;;;;;;;1.73;1.73;;;24.80;71.30;;;;;;4954170;28;20183;-85
2023/07/22 14:38:11;;;;;;;3.93;1.70;;;24.80;71.60;;;;;;4953861;28;20187;-85
2023/07/22 14:40:37;;;;;;;2.73;2.53;;;24.80;71.70;;;;;;4955126;28;20260;-82
2023/07/22 14:43:03;;;;;;;2.17;1.83;;;25.00;71.50;;;;;;4955846;28;20185;-82
2023/07/22 14:45:29;;;;;;;2.20;1.57;;;25.20;71.10;;;;;;4954722;28;20279;-82
2023/07/22 14:47:55;;;;;;;2.77;1.47;;;25.30;70.70;;;;;;4954128;28;20455;-82
2023/07/22 14:50:20;;;;;;;3.60;2.07;;;25.30;69.40;;;;;;4954403;29;20179;-81
2023/07/22 14:52:46;;;;;;;3.97;2.73;;;25.30;70.20;;;;;;4952079;29;20317;-81
2023/07/22 14:55:11;;;;;;;3.00;2.13;;;25.20;70.80;;;;;;4953855;28;20186;-84
2023/07/22 14:57:37;;;;;;;2.80;2.60;;;25.10;69.90;;;;;;4953292;28;20188;-84
2023/07/22 15:00:03;;;;;;;2.23;1.67;;;25.20;69.50;;;;;;4952362;28;20218;-81
2023/07/22 15:02:28;;;;;;;3.03;1.83;;;25.20;69.80;;;;;;4954606;28;20296;-82
2023/07/22 15:04:54;;;;;;;3.80;2.63;;;25.30;69.70;;;;;;4953065;28;21036;-85
2023/07/22 15:07:21;;;;;;;2.73;1.43;;;25.50;70.10;;;;;;4951494;29;20729;-84
2023/07/22 15:09:47;;;;;;;1.90;1.80;;;25.60;69.40;;;;;;4943432;29;20192;-81
2023/07/22 15:12:12;;;;;;;2.47;1.73;;;25.70;68.10;;;;;;4951212;28;20521;-84
2023/07/22 15:14:38;;;;;;;2.80;2.57;;;25.80;70.70;;;;;;4950513;28;20187;-84
2023/07/22 15:17:05;;;;;;;6.30;2.30;;;25.90;69.10;;;;;;4953286;28;20207;-84
2023/07/22 15:19:30;;;;;;;1.43;1.30;;;25.80;69.10;;;;;;4951952;28;20184;-82
2023/07/22 15:21:56;;;;;;;2.70;1.50;;;25.80;69.80;;;;;;4953193;29;20455;-84
2023/07/22 15:24:22;;;;;;;4.17;1.93;;;25.70;68.90;;;;;;4953178;29;20183;-84
2023/07/22 15:26:47;;;;;;;5.50;2.60;;;25.50;70.50;;;;;;4953645;28;20183;-85
2023/07/22 15:29:13;;;;;;;2.77;1.60;;;25.30;70.00;;;;;;4956182;28;20186;-83
2023/07/22 15:31:39;;;;;;;3.67;1.97;;;25.10;70.30;;;;;;4956821;28;20199;-84
2023/07/22 15:34:04;;;;;;;2.80;1.93;;;24.90;71.10;;;;;;4948425;29;20175;-81
2023/07/22 15:36:30;;;;;;;3.00;2.17;;;24.90;71.40;;;;;;4957742;29;20415;-81
2023/07/22 15:38:55;;;;;;;2.13;1.97;;;25.00;72.20;;;;;;4954695;28;20171;-85
2023/07/22 15:41:22;;;;;;;1.73;1.70;;;25.10;70.30;;;;;;4956678;28;20570;-84
2023/07/22 15:43:47;;;;;;;1.87;1.33;;;25.30;70.20;;;;;;4956990;28;20203;-84
2023/07/22 15:46:13;;;;;;;2.83;2.07;;;25.20;69.60;;;;;;4956393;28;20481;-86
2023/07/22 15:48:38;;;;;;;1.83;1.60;;;25.30;70.30;;;;;;4956907;28;20198;-84
2023/07/22 15:51:06;;;;;;;2.30;2.10;;;25.30;70.50;;;;;;4955599;28;20634;-80
2023/07/22 15:53:34;;;;;;;13.33;2.30;;;25.20;69.60;;;;;;4956579;28;20176;-85
2023/07/22 15:56:07;;;;;;;3.50;1.50;;;25.10;69.90;;;;;;4954766;29;20514;-84
2023/07/22 15:58:32;;;;;;;3.23;1.80;;;24.90;70.00;;;;;;4955309;28;20490;-84
2023/07/22 16:00:58;;;;;;;1.87;1.80;;;24.70;70.60;;;;;;4954972;28;20996;-84
2023/07/22 16:03:23;;;;;;;3.83;1.80;;;24.60;70.30;;;;;;4955397;29;20258;-81
2023/07/22 16:05:49;;;;;;;6.87;3.17;;;24.50;71.00;;;;;;4956455;29;20611;-82
2023/07/22 16:08:14;;;;;;;3.13;1.60;;;24.40;70.70;;;;;;4954995;28;20210;-84
2023/07/22 16:10:40;;;;;;;2.60;1.60;;;24.50;71.00;;;;;;4954751;28;20187;-84
2023/07/22 16:13:06;;;;;;;2.43;1.90;;;24.50;70.50;;;;;;4957563;28;20214;-82
2023/07/22 16:15:31;;;;;;;2.23;2.03;;;24.50;69.50;;;;;;4957468;29;20179;-81
2023/07/22 16:17:57;;;;;;;6.10;4.77;;;24.40;70.10;;;;;;4953828;28;20187;-84
2023/07/22 16:20:22;;;;;;;5.80;3.50;;;24.40;71.00;;;;;;4956150;28;20171;-81
2023/07/22 16:22:48;;;;;;;4.27;3.33;;;24.40;70.40;;;;;;4954618;29;20183;-81
2023/07/22 16:25:14;;;;;;;2.03;1.80;;;24.30;70.30;;;;;;4952985;29;20646;-82
2023/07/22 16:27:39;;;;;;;3.53;2.37;;;24.20;70.40;;;;;;4954641;29;20693;-84
2023/07/22 16:30:09;;;;;;;7.80;1.70;;;24.10;71.50;;;;;;4952717;28;20190;-81
2023/07/22 16:32:35;;;;;;;1.63;1.60;;;24.00;71.00;;;;;;4954900;29;20589;-81
2023/07/22 16:35:00;;;;;;;2.37;1.70;;;23.90;71.50;;;;;;4954018;28;20515;-84
2023/07/22 16:37:26;;;;;;;4.60;1.70;;;23.90;71.70;;;;;;4954779;29;20579;-84
2023/07/22 16:39:53;;;;;;;1.60;1.50;;;23.90;72.40;;;;;;4953924;28;20183;-84
2023/07/22 16:42:20;;;;;;;4.00;2.70;;;23.90;71.60;;;;;;4955156;29;20206;-82
2023/07/22 16:44:45;;;;;;;4.63;2.40;;;23.90;71.40;;;;;;4956419;28;20446;-85